ENST/SSJ METAR and TAF weather

Enter ICAO airport designator
Station Type Date Time Source
ENST METAR 2022/06/26 02:50 UTC NOAA

ENST 260250Z 00000KT CAVOK 14/13 Q1016 RMK WIND 300FT 10003KT


Station Type Date Time Source
ENST Decoded METAR 2022/06/26 02:50 UTC NOAA

Sandnessjoen / Stokka, Norway (ENST) 65-58N 012-28E 17M
Jun 25, 2022 - 10:50 PM EDT / 2022.06.26 0250 UTC
Wind: Calm:0
Visibility: greater than 7 mile(s):0
Temperature: 57 F (14 C)
Dew Point: 55 F (13 C)
Relative Humidity: 93%
Pressure (altimeter): 30.00 in. Hg (1016 hPa)
ob: ENST 260250Z 00000KT CAVOK 14/13 Q1016 RMK WIND 300FT 10003KT
cycle: 3

Station Type Date Time Source
ENST TAF UTC NOAA

Error!

Example: see airport list